Dimitrios — SX6749 — position and weather

sailwx.info

Track history (hours):
 
Tides and Currents Weather Stations Pressure Air Temp Water Temp Dewpoint Dewpoint Depression Visibility Wind Speed Wind Dir Waves Ship Positions

Dimitrios

Last reported at 2017-Oct-15 08:06 UTC. Time now 2017-Oct-19 07:08 UTC.
Position N 40°02' E 025°03'.

Length 75 m; draft 4.6 m.

Type: Cargo ship. MMSI: 237006500.

Date/timePositionNaut miles runAvg speedWind from/ knotsBaromVisibWave heightAir tempDewpointWater temp
2017-Oct-15 08:06N 40°02' E 025°03'11 8.5
2017-Oct-15 06:47N 40°13' E 025°08'3 8.6
2017-Oct-15 06:28N 40°15' E 025°09'4 6.9
2017-Oct-15 05:55N 40°19' E 025°07'3 8.4
2017-Oct-15 05:31N 40°21' E 025°04'4 8.2
2017-Oct-15 04:59N 40°23' E 024°59'5 8.2
2017-Oct-15 04:21N 40°26' E 024°53'4 8.1
2017-Oct-15 03:50N 40°28' E 024°48'3 8.2
2017-Oct-15 03:30N 40°29' E 024°45'4 8.0
2017-Oct-15 03:00N 40°30' E 024°40'4 7.8
2017-Oct-15 02:30N 40°31' E 024°35'4 7.7
2017-Oct-15 02:00N 40°32' E 024°30'4 7.8
2017-Oct-15 01:29N 40°33' E 024°25'4 7.9
2017-Oct-15 01:01N 40°34' E 024°20'4 7.9
2017-Oct-15 00:28N 40°35' E 024°15'  
2017-Oct-12 17:07N 40°21' E 024°18'2 9.3
2017-Oct-12 16:57N 40°20' E 024°20'4 9.4
2017-Oct-12 16:29N 40°18' E 024°24'7 9.3
2017-Oct-12 15:41N 40°13' E 024°32'2 9.6
2017-Oct-12 15:29N 40°12' E 024°33'5 9.8
2017-Oct-12 14:58N 40°08' E 024°39'510.5
2017-Oct-12 14:30N 40°05' E 024°43'510.6
2017-Oct-12 14:01N 40°02' E 024°48'810.0
2017-Oct-12 13:13N 39°57' E 024°56'3 9.2
2017-Oct-12 12:51N 39°54' E 024°60'  
2017-Oct-06 13:10N 37°42' E 023°40'1 8.2
2017-Oct-06 12:59N 37°44' E 023°39'4 8.1
2017-Oct-06 12:31N 37°47' E 023°37'4 7.7
2017-Oct-06 12:01N 37°51' E 023°35'4 8.0
2017-Oct-06 11:30N 37°55' E 023°35'3 6.5
2017-Oct-06 11:01N 37°58' E 023°33'4 7.2
2017-Oct-06 10:30N 38°01' E 023°35'1 2.5
2017-Oct-06 10:00N 38°02' E 023°35'0 0.0
2017-Oct-06 09:30N 38°02' E 023°35'0 0.0
2017-Oct-06 09:00N 38°02' E 023°35'0 0.0
2017-Oct-06 08:30N 38°02' E 023°35'0 0.0
2017-Oct-06 08:00N 38°02' E 023°35'0 0.0
2017-Oct-06 07:30N 38°02' E 023°35'0 0.0
2017-Oct-06 06:58N 38°02' E 023°35'0 0.0
2017-Oct-06 06:30N 38°02' E 023°35'1 1.3
2017-Oct-06 06:01N 38°02' E 023°35'3 5.2
2017-Oct-06 05:30N 38°02' E 023°31'0 0.2
2017-Oct-06 05:00N 38°02' E 023°31'0 0.0
2017-Oct-06 04:30N 38°02' E 023°31'0 0.0
2017-Oct-06 04:00N 38°02' E 023°31'0 0.0
2017-Oct-06 03:30N 38°02' E 023°31'0 0.0
2017-Oct-06 03:00N 38°02' E 023°31'0 0.0
2017-Oct-06 02:27N 38°02' E 023°31'0 0.0
2017-Oct-06 02:00N 38°02' E 023°31'0 0.0
2017-Oct-06 01:29N 38°02' E 023°31'0 0.0
2017-Oct-06 00:59N 38°02' E 023°31'0 0.0
2017-Oct-06 00:30N 38°02' E 023°31'0 0.0
2017-Oct-05 23:57N 38°02' E 023°31'0 0.0
2017-Oct-05 23:30N 38°02' E 023°31'0 0.0
2017-Oct-05 22:51N 38°02' E 023°31'0 0.0
2017-Oct-05 22:30N 38°02' E 023°31'0 0.0
2017-Oct-05 22:01N 38°02' E 023°31'0 0.0
2017-Oct-05 21:31N 38°02' E 023°31'0 0.0
2017-Oct-05 21:01N 38°02' E 023°31'0 0.0
2017-Oct-05 20:31N 38°02' E 023°31'0 0.1
2017-Oct-05 19:59N 38°02' E 023°32'0 0.7
2017-Oct-05 19:31N 38°02' E 023°31'0 0.0
2017-Oct-05 19:01N 38°02' E 023°31'0 0.0
2017-Oct-05 18:31N 38°02' E 023°31'0 0.0
2017-Oct-05 18:00N 38°02' E 023°31'0 0.0
2017-Oct-05 17:30N 38°02' E 023°31'0 0.0
2017-Oct-05 17:00N 38°02' E 023°31'0 0.0
2017-Oct-05 15:31N 38°02' E 023°31'0 0.0
2017-Oct-05 15:00N 38°02' E 023°31'0 0.0
2017-Oct-05 14:30N 38°02' E 023°31'0 0.0
2017-Oct-05 14:01N 38°02' E 023°31'0 0.1
2017-Oct-05 13:31N 38°02' E 023°31'2 4.9
2017-Oct-05 13:00N 38°01' E 023°34'1 2.5
2017-Oct-05 12:31N 38°02' E 023°35'0 0.0
2017-Oct-05 12:01N 38°02' E 023°35'0 0.0
2017-Oct-05 11:30N 38°02' E 023°35'0 0.0
2017-Oct-05 11:01N 38°02' E 023°35'0 0.0
2017-Oct-05 10:30N 38°02' E 023°35'0 0.0
2017-Oct-05 10:01N 38°02' E 023°35'0 0.0
2017-Oct-05 09:30N 38°02' E 023°35'0 0.0
2017-Oct-05 09:00N 38°02' E 023°35'0 0.0
2017-Oct-05 08:31N 38°02' E 023°35'  
Track history (hours):
 
Tides and Currents Weather Stations Pressure Air Temp Water Temp Dewpoint Dewpoint Depression Visibility Wind Speed Wind Dir Waves Ship Positions

Dimitrios

Last reported at 2017-Oct-15 08:06 UTC. Time now 2017-Oct-19 07:08 UTC.
Position N 40°02' E 025°03'.

Length 75 m; draft 4.6 m.

Type: Cargo ship. MMSI: 237006500.

Date/timePositionNaut miles runAvg speedWind from/ knotsBaromVisibWave heightAir tempDewpointWater temp
2017-Oct-15 08:06N 40°02' E 025°03'11 8.5
2017-Oct-15 06:47N 40°13' E 025°08'3 8.6
2017-Oct-15 06:28N 40°15' E 025°09'4 6.9
2017-Oct-15 05:55N 40°19' E 025°07'3 8.4
2017-Oct-15 05:31N 40°21' E 025°04'4 8.2
2017-Oct-15 04:59N 40°23' E 024°59'5 8.2
2017-Oct-15 04:21N 40°26' E 024°53'4 8.1
2017-Oct-15 03:50N 40°28' E 024°48'3 8.2
2017-Oct-15 03:30N 40°29' E 024°45'4 8.0
2017-Oct-15 03:00N 40°30' E 024°40'4 7.8
2017-Oct-15 02:30N 40°31' E 024°35'4 7.7
2017-Oct-15 02:00N 40°32' E 024°30'4 7.8
2017-Oct-15 01:29N 40°33' E 024°25'4 7.9
2017-Oct-15 01:01N 40°34' E 024°20'4 7.9
2017-Oct-15 00:28N 40°35' E 024°15'  
2017-Oct-12 17:07N 40°21' E 024°18'2 9.3
2017-Oct-12 16:57N 40°20' E 024°20'4 9.4
2017-Oct-12 16:29N 40°18' E 024°24'7 9.3
2017-Oct-12 15:41N 40°13' E 024°32'2 9.6
2017-Oct-12 15:29N 40°12' E 024°33'5 9.8
2017-Oct-12 14:58N 40°08' E 024°39'510.5
2017-Oct-12 14:30N 40°05' E 024°43'510.6
2017-Oct-12 14:01N 40°02' E 024°48'810.0
2017-Oct-12 13:13N 39°57' E 024°56'3 9.2
2017-Oct-12 12:51N 39°54' E 024°60'  
2017-Oct-06 13:10N 37°42' E 023°40'1 8.2
2017-Oct-06 12:59N 37°44' E 023°39'4 8.1
2017-Oct-06 12:31N 37°47' E 023°37'4 7.7
2017-Oct-06 12:01N 37°51' E 023°35'4 8.0
2017-Oct-06 11:30N 37°55' E 023°35'3 6.5
2017-Oct-06 11:01N 37°58' E 023°33'4 7.2
2017-Oct-06 10:30N 38°01' E 023°35'1 2.5
2017-Oct-06 10:00N 38°02' E 023°35'0 0.0
2017-Oct-06 09:30N 38°02' E 023°35'0 0.0
2017-Oct-06 09:00N 38°02' E 023°35'0 0.0
2017-Oct-06 08:30N 38°02' E 023°35'0 0.0
2017-Oct-06 08:00N 38°02' E 023°35'0 0.0
2017-Oct-06 07:30N 38°02' E 023°35'0 0.0
2017-Oct-06 06:58N 38°02' E 023°35'0 0.0
2017-Oct-06 06:30N 38°02' E 023°35'1 1.3
2017-Oct-06 06:01N 38°02' E 023°35'3 5.2
2017-Oct-06 05:30N 38°02' E 023°31'0 0.2
2017-Oct-06 05:00N 38°02' E 023°31'0 0.0
2017-Oct-06 04:30N 38°02' E 023°31'0 0.0
2017-Oct-06 04:00N 38°02' E 023°31'0 0.0
2017-Oct-06 03:30N 38°02' E 023°31'0 0.0
2017-Oct-06 03:00N 38°02' E 023°31'0 0.0
2017-Oct-06 02:27N 38°02' E 023°31'0 0.0
2017-Oct-06 02:00N 38°02' E 023°31'0 0.0
2017-Oct-06 01:29N 38°02' E 023°31'0 0.0
2017-Oct-06 00:59N 38°02' E 023°31'0 0.0
2017-Oct-06 00:30N 38°02' E 023°31'0 0.0
2017-Oct-05 23:57N 38°02' E 023°31'0 0.0
2017-Oct-05 23:30N 38°02' E 023°31'0 0.0
2017-Oct-05 22:51N 38°02' E 023°31'0 0.0
2017-Oct-05 22:30N 38°02' E 023°31'0 0.0
2017-Oct-05 22:01N 38°02' E 023°31'0 0.0
2017-Oct-05 21:31N 38°02' E 023°31'0 0.0
2017-Oct-05 21:01N 38°02' E 023°31'0 0.0
2017-Oct-05 20:31N 38°02' E 023°31'0 0.1
2017-Oct-05 19:59N 38°02' E 023°32'0 0.7
2017-Oct-05 19:31N 38°02' E 023°31'0 0.0
2017-Oct-05 19:01N 38°02' E 023°31'0 0.0
2017-Oct-05 18:31N 38°02' E 023°31'0 0.0
2017-Oct-05 18:00N 38°02' E 023°31'0 0.0
2017-Oct-05 17:30N 38°02' E 023°31'0 0.0
2017-Oct-05 17:00N 38°02' E 023°31'0 0.0
2017-Oct-05 15:31N 38°02' E 023°31'0 0.0
2017-Oct-05 15:00N 38°02' E 023°31'0 0.0
2017-Oct-05 14:30N 38°02' E 023°31'0 0.0
2017-Oct-05 14:01N 38°02' E 023°31'0 0.1
2017-Oct-05 13:31N 38°02' E 023°31'2 4.9
2017-Oct-05 13:00N 38°01' E 023°34'1 2.5
2017-Oct-05 12:31N 38°02' E 023°35'0 0.0
2017-Oct-05 12:01N 38°02' E 023°35'0 0.0
2017-Oct-05 11:30N 38°02' E 023°35'0 0.0
2017-Oct-05 11:01N 38°02' E 023°35'0 0.0
2017-Oct-05 10:30N 38°02' E 023°35'0 0.0
2017-Oct-05 10:01N 38°02' E 023°35'0 0.0
2017-Oct-05 09:30N 38°02' E 023°35'0 0.0
2017-Oct-05 09:00N 38°02' E 023°35'0 0.0
2017-Oct-05 08:31N 38°02' E 023°35'  

Dump ship's entire track history